Flight Track Log - Related Links

Times and Time Zones

All times are in EDT time to prevent confusion due to time zone crossing. See the EJA831 flight status page for this flight to view local times or setup timezone preferences in your user account.

Time Position Orientation Groundspeed Altitude Reporting Facility
EDT Latitude Longitude Course Direction KTS MPH feet Rate Location/Type
Mon 08:16:19 PM 34.9303 -85.2194 179° South 251 289 7,800  Level Atlanta Center
Mon 08:17:19 PM 34.9350 -85.1383 86° East 256 295 10,000 1,100 Climbing Atlanta Center
Mon 08:18:19 PM 34.9983 -85.0581 46° Northeast 253 291 10,000 850 Level Atlanta Center
Mon 08:19:19 PM 35.0639 -84.9725 47° Northeast 294 338 11,700 1,950 Climbing Atlanta Center
Mon 08:20:19 PM 35.1292 -84.8894 46° Northeast 309 356 13,900 2,300 Climbing Atlanta Center
Mon 08:21:19 PM 35.1964 -84.8039 46° Northeast 332 382 16,300 2,800 Climbing Atlanta Center
Mon 08:22:19 PM 35.2617 -84.7206 46° Northeast 332 382 19,500 2,850 Climbing Atlanta Center
Mon 08:23:19 PM 35.3289 -84.6369 45° Northeast 332 382 22,000 2,250 Climbing Atlanta Center
Mon 08:24:19 PM 35.3958 -84.5508 46° Northeast 332 382 24,000 1,450 Climbing Atlanta Center
Mon 08:25:19 PM 35.4589 -84.4442 54° Northeast 355 409 24,900 1,400 Climbing Atlanta Center
Mon 08:26:19 PM 35.5178 -84.3322 57° Northeast 376 433 26,800 1,850 Climbing Atlanta Center
Mon 08:27:19 PM 35.5764 -84.2200 57° Northeast 388 447 28,600 1,900 Climbing Atlanta Center
Mon 08:28:19 PM 35.6347 -84.1078 57° Northeast 388 447 30,600 2,000 Climbing Atlanta Center
Mon 08:29:19 PM 35.6994 -84.0106 51° Northeast 380 437 32,600 1,200 Climbing Atlanta Center
Mon 08:30:19 PM 35.7744 -83.9108 47° Northeast 380 437 33,000 200 Climbing Atlanta Center
Mon 08:31:19 PM 35.8517 -83.8056 48° Northeast 391 450 33,000 150 Level Atlanta Center
Mon 08:32:19 PM 35.9328 -83.6975 47° Northeast 410 472 33,300 500 Climbing Atlanta Center
Mon 08:33:19 PM 36.0117 -83.5947 46° Northeast 410 472 34,000 800 Climbing Atlanta Center
Mon 08:34:19 PM 36.0903 -83.4836 49° Northeast 417 480 34,900 900 Climbing Atlanta Center
Mon 08:35:19 PM 36.1650 -83.3828 47° Northeast 411 473 35,800 800 Climbing Atlanta Center
Mon 08:36:19 PM 36.2436 -83.2742 48° Northeast 411 473 36,500 600 Climbing Atlanta Center
Mon 08:37:19 PM 36.3242 -83.1678 47° Northeast 417 480 37,000 250 Climbing Atlanta Center
Mon 08:38:19 PM 36.4006 -83.0586 49° Northeast 417 480 37,000  Level Atlanta Center
Mon 08:40:34 PM 36.5786 -82.8208 47° Northeast 430 495 37,000  Level Indianapolis Center
Mon 08:41:36 PM 36.6575 -82.7108 48° Northeast 430 495 37,000  Level Indianapolis Center
Mon 08:42:38 PM 36.7506 -82.5822 48° Northeast 431 496 37,000  Level Indianapolis Center
Mon 08:43:39 PM 36.8322 -82.4706 48° Northeast 438 504 37,000  Level Indianapolis Center
Mon 08:44:41 PM 36.9103 -82.3600 49° Northeast 429 494 37,000  Level Indianapolis Center
Mon 08:45:42 PM 36.9922 -82.2486 47° Northeast 434 499 37,000  Level Indianapolis Center
Mon 08:46:44 PM 37.0722 -82.1372 48° Northeast 430 495 37,000  Level Indianapolis Center
Mon 08:47:45 PM 37.1461 -82.0225 51° Northeast 424 488 37,000  Level Indianapolis Center
Mon 08:48:47 PM 37.1894 -81.8558 72° East 428 493 37,000  Level Indianapolis Center
Mon 08:49:48 PM 37.2231 -81.7139 73° East 425 489 37,000  Level Indianapolis Center
Mon 08:50:50 PM 37.2575 -81.5714 73° East 426 490 37,000  Level Indianapolis Center
Mon 08:51:51 PM 37.2911 -81.4292 73° East 426 490 37,000  Level Indianapolis Center
Mon 08:52:53 PM 37.3225 -81.2964 73° East 423 487 37,000  Level Indianapolis Center
Mon 08:53:54 PM 37.3622 -81.1281 73° East 429 494 37,000  Level Indianapolis Center
Mon 08:54:56 PM 37.3939 -80.9883 74° East 428 493 37,000  Level Indianapolis Center
Mon 08:55:57 PM 37.4267 -80.8450 74° East 435 501 37,000  Level Indianapolis Center
Mon 08:56:58 PM 37.4594 -80.7042 74° East 433 498 37,000  Level Indianapolis Center
Mon 08:58:00 PM 37.4989 -80.5350 74° East 430 495 37,000 49 Level Indianapolis Center
Mon 08:59:01 PM 37.5306 -80.3931 74° East 433 498 37,100  Climbing Indianapolis Center
Mon 09:00:04 PM 37.5633 -80.2528 74° East 434 499 37,000 -49 Descending Washington Center
Mon 09:01:04 PM 37.5983 -80.1003 74° East 434 499 37,000  Level Washington Center
Mon 09:02:05 PM 37.6333 -79.9450 74° East 440 506 37,000  Level Washington Center
Mon 09:03:05 PM 37.6706 -79.7767 74° East 456 525 37,000  Level Washington Center
Mon 09:04:06 PM 37.7003 -79.6392 75° East 456 525 37,000  Level Washington Center
Mon 09:05:04 PM 37.7392 -79.4783 73° East 443 510 37,000  Level Washington Center
Mon 09:06:05 PM 37.7708 -79.3275 75° East 443 510 37,000  Level Washington Center
Mon 09:07:05 PM 37.8025 -79.1794 75° East 438 504 37,000  Level Washington Center
Mon 09:08:06 PM 37.8342 -79.0311 75° East 438 504 37,000  Level Washington Center
Mon 09:09:06 PM 37.8653 -78.8825 75° East 433 498 37,000  Level Washington Center
Mon 09:10:04 PM 37.8942 -78.7469 75° East 433 498 37,000  Level Washington Center
Mon 09:11:05 PM 37.9250 -78.5981 75° East 433 498 37,000  Level Washington Center
Mon 09:12:06 PM 37.9578 -78.4494 74° East 433 498 37,000  Level Washington Center
Mon 09:13:06 PM 37.9883 -78.3003 75° East 433 498 37,000  Level Washington Center
Mon 09:14:05 PM 38.0233 -78.1381 75° East 438 504 37,000  Level Washington Center
Mon 09:15:05 PM 38.0886 -78.0058 58° Northeast 421 484 37,000  Level Washington Center
Mon 09:16:06 PM 38.1536 -77.8758 58° Northeast 427 491 37,000  Level Washington Center
Mon 09:17:04 PM 38.2186 -77.7431 58° Northeast 437 503 37,000  Level Washington Center
Mon 09:18:05 PM 38.2836 -77.6100 58° Northeast 437 503 37,000  Level Washington Center
Mon 09:19:05 PM 38.3522 -77.4822 56° Northeast 442 509 37,000 -99 Level Washington Center
Mon 09:20:06 PM 38.4292 -77.3594 51° Northeast 442 509 36,800 -934 Descending Washington Center
Mon 09:21:07 PM 38.5100 -77.2472 47° Northeast 437 503 35,100 -2,186 Descending Washington Center
Mon 09:22:04 PM 38.5969 -77.1403 44° Northeast 432 497 32,500 -2,644 Descending Washington Center
Mon 09:23:05 PM 38.6817 -77.0303 45° Northeast 426 490 29,900 -2,557 Descending Washington Center
Mon 09:24:06 PM 38.7664 -76.9256 44° Northeast 426 490 27,300 -2,622 Descending Washington Center
Mon 09:25:04 PM 38.8489 -76.8178 45° Northeast 426 490 24,700 -1,664 Descending Washington Center
Mon 09:26:05 PM 38.9289 -76.7178 44° Northeast 414 476 24,000 -344 Descending Washington Center
Mon 09:27:06 PM 39.0111 -76.6147 44° Northeast 404 465 24,000  Level Washington Center
Mon 09:28:06 PM 39.0911 -76.5089 46° Northeast 404 465 24,000  Level Washington Center
Mon 09:29:04 PM 39.1711 -76.4081 44° Northeast 404 465 24,000  Level Washington Center
Mon 09:30:05 PM 39.2511 -76.3044 45° Northeast 404 465 24,000  Level Washington Center
Mon 09:31:06 PM 39.3308 -76.2033 44° Northeast 404 465 24,000 -706 Level Washington Center
Mon 09:32:38 PM 39.4667 -76.0333 44° Northeast 392 451 22,200 -1,539 Descending Philadelphia TRACON
Mon 09:33:38 PM 39.5333 -75.9500 44° Northeast 387 445 20,100 -2,100 Descending Philadelphia TRACON
Mon 09:34:38 PM 39.6167 -75.8500 43° Northeast 384 442 18,000 -2,053 Descending Philadelphia TRACON
Mon 09:35:32 PM 39.6833 -75.7500 49° Northeast 369 425 16,200 -2,000 Descending Philadelphia TRACON
Mon 09:36:32 PM 39.7500 -75.6667 44° Northeast 354 407 14,200 -1,600 Descending Philadelphia TRACON
Mon 09:37:32 PM 39.8167 -75.5833 44° Northeast 335 386 13,000 -600 Descending Philadelphia TRACON
Mon 09:38:32 PM 39.9000 -75.5167 32° Northeast 341 392 13,000  Level Philadelphia TRACON
Mon 09:39:32 PM 39.9667 -75.4500 37° Northeast 337 388 13,000  Level Philadelphia TRACON
Mon 09:40:32 PM 40.0500 -75.3667 37° Northeast 337 388 13,000  Level Philadelphia TRACON
Mon 09:41:26 PM 40.1167 -75.3000 37° Northeast 341 392 13,000 -450 Level Philadelphia TRACON
Mon 09:42:32 PM 40.2000 -75.2333 31° Northeast 310 357 12,100 -1,095 Descending Philadelphia TRACON
Mon 09:43:32 PM 40.2667 -75.1667 37° Northeast 308 354 10,700 -1,385 Descending Philadelphia TRACON
Mon 09:44:16 PM 40.3167 -75.1167 37° Northeast 294 338 9,700 -1,500 Descending New York TRACON
Mon 09:45:16 PM 40.3667 -75.0500 45° Northeast 289 333 8,100 -1,300 Descending New York TRACON
Mon 09:46:16 PM 40.4167 -74.9667 52° Northeast 279 321 7,100 -500 Descending New York TRACON
Mon 09:47:16 PM 40.4667 -74.9000 45° Northeast 276 318 7,100 -650 Level New York TRACON
Mon 09:48:16 PM 40.5167 -74.8333 45° Northeast 276 318 5,800 -1,000 Descending New York TRACON
Mon 09:49:16 PM 40.5833 -74.7500 43° Northeast 273 314 5,100 -850 Descending New York TRACON
Mon 09:50:16 PM 40.6333 -74.7000 37° Northeast 275 316 4,100 -500 Descending New York TRACON
Mon 09:51:16 PM 40.7000 -74.6500 30° Northeast 282 325 4,100  Level New York TRACON
Mon 09:52:16 PM 40.7667 -74.6000 30° Northeast 278 320 4,100 -500 Level New York TRACON
Mon 09:53:16 PM 40.8167 -74.5167 52° Northeast 262 302 3,100 -500 Descending New York TRACON
Mon 09:54:16 PM 40.8500 -74.4333 62° Northeast 265 305 3,100  Level New York TRACON
Mon 09:55:16 PM 40.9000 -74.3500 52° Northeast 266 306 3,100 -238 Level New York TRACON
Mon 09:56:22 PM 40.9333 -74.2667 62° Northeast 239 275 2,600 -333 Descending New York TRACON
Mon 09:58:00 PM 40.8504 -74.0527 102° East  Level FlightAware Approximate
Mon 09:58:16 PM 40.9667 -74.1500 102° East 177 204 2,100  Level New York TRACON
Mon 09:59:22 PM 40.9833 -74.0833 72° East 191 220 2,100 -143 Level New York TRACON
Mon 10:00:22 PM 40.9333 -74.0500 153° Southeast 167 192 1,800 -550 Descending New York TRACON
Mon 10:01:22 PM 40.9000 -74.0500 180° South 124 143 1,000 -700 Descending New York TRACON
Mon 10:02:22 PM 40.8667 -74.0500 180° South 106 122 400 -600 Descending New York TRACON
Mon 10:04:00 PM 40.8500 -74.0500 102° East  Level FlightAware Approximate
Mon 10:11:00 PM 40.8501 -74.0608 102° East  Level Estimated

Login

Don't have an account? Register now (free) for customized features, flight alerts, and more!